KBYH/BYH METAR and TAF weather

Enter ICAO airport designator
Station Type Date Time Source
KBYH METAR 2021/09/22 20:50 UTC NOAA

KBYH 222050Z 33011G23KT 10SM SCT070 23/09 A3011 RMK LAST


Station Type Date Time Source
KBYH Decoded METAR 2021/09/22 20:50 UTC NOAA

Eaker Air Force Base, AR, United States (KBYH) 35-58N 089-57W
Sep 22, 2021 - 04:50 PM EDT / 2021.09.22 2050 UTC
Wind: from the NNW (330 degrees) at 13 MPH (11 KT) gusting to 26 MPH (23 KT):0
Visibility: 10 mile(s):0
Sky conditions: partly cloudy
Temperature: 73 F (23 C)
Dew Point: 48 F (9 C)
Relative Humidity: 40%
Pressure (altimeter): 30.11 in. Hg (1019 hPa)
ob: KBYH 222050Z 33011G23KT 10SM SCT070 23/09 A3011 RMK LAST
cycle: 21

Station Type Date Time Source
KBYH TAF UTC NOAA

Error!

Example: see airport list